createdAt,value
2018-11-06T00:00:58.093Z,32.93
2018-11-06T00:03:31.762Z,32.43
2018-11-06T00:05:59.953Z,32.23
2018-11-06T00:08:28.115Z,37.10
2018-11-06T00:10:56.253Z,35.37
2018-11-06T00:13:24.447Z,33.63
2018-11-06T00:15:52.597Z,32.27
2018-11-06T00:18:20.810Z,33.87
2018-11-06T00:20:48.979Z,30.87
2018-11-06T00:23:17.170Z,34.20
2018-11-06T00:25:45.367Z,33.60
2018-11-06T00:28:13.899Z,36.17
2018-11-06T00:30:42.072Z,33.80
2018-11-06T00:33:10.222Z,33.13
2018-11-06T00:35:38.395Z,33.47
2018-11-06T00:38:06.565Z,33.70
2018-11-06T00:40:34.731Z,32.57
2018-11-06T00:43:02.883Z,36.13
2018-11-06T00:45:31.054Z,31.97
2018-11-06T00:47:59.247Z,32.77
2018-11-06T00:50:27.444Z,35.40
2018-11-06T00:52:55.614Z,35.87
2018-11-06T00:55:23.775Z,32.90
2018-11-06T00:57:51.951Z,37.73
2018-11-06T01:00:20.270Z,36.23
2018-11-06T01:02:48.783Z,35.47
2018-11-06T01:05:17.599Z,37.33
2018-11-06T01:07:47.641Z,35.50
2018-11-06T01:10:15.781Z,37.73
2018-11-06T01:12:43.934Z,35.13
2018-11-06T01:15:13.267Z,36.90
2018-11-06T01:17:42.010Z,34.03
2018-11-06T01:20:13.274Z,34.27
2018-11-06T01:22:41.466Z,35.33
2018-11-06T01:25:10.221Z,35.43
2018-11-06T01:27:38.602Z,34.77
2018-11-06T01:30:15.110Z,33.80
2018-11-06T01:32:44.079Z,36.33
2018-11-06T01:35:13.289Z,42.37
2018-11-06T01:37:42.245Z,32.30
2018-11-06T01:40:12.361Z,35.57
2018-11-06T01:42:40.961Z,35.07
2018-11-06T01:45:11.102Z,34.77
2018-11-06T01:47:39.554Z,36.10
2018-11-06T01:50:09.054Z,35.63
2018-11-06T01:52:37.704Z,34.80
2018-11-06T01:55:06.270Z,36.37
2018-11-06T01:57:34.450Z,35.10
2018-11-06T02:00:02.639Z,36.53
2018-11-06T02:02:31.103Z,32.93
2018-11-06T02:04:59.289Z,36.43
2018-11-06T02:07:27.472Z,38.87
2018-11-06T02:09:55.655Z,38.57
2018-11-06T02:12:23.819Z,37.07
2018-11-06T02:14:51.993Z,36.17
2018-11-06T02:17:20.207Z,34.17
2018-11-06T02:19:48.562Z,37.57
2018-11-06T02:22:16.730Z,38.93
2018-11-06T02:24:44.919Z,32.10
2018-11-06T02:27:13.079Z,33.23
2018-11-06T02:29:41.238Z,33.60
2018-11-06T02:32:09.483Z,33.13
2018-11-06T02:34:37.574Z,34.37
2018-11-06T02:37:05.724Z,34.13
2018-11-06T02:39:33.938Z,36.27
2018-11-06T02:42:02.077Z,35.93
2018-11-06T02:44:30.219Z,31.33
2018-11-06T02:46:59.018Z,36.17
2018-11-06T02:49:27.155Z,33.60
2018-11-06T02:51:55.330Z,38.73
2018-11-06T02:54:23.503Z,35.87
2018-11-06T02:56:51.677Z,34.40
2018-11-06T02:59:19.821Z,37.43
2018-11-06T03:01:47.976Z,36.67
2018-11-06T03:04:16.143Z,37.27
2018-11-06T03:06:44.276Z,37.03
2018-11-06T03:09:12.470Z,38.27
2018-11-06T03:11:40.621Z,35.60
2018-11-06T03:14:08.805Z,32.50
2018-11-06T03:16:36.936Z,33.50
2018-11-06T03:19:05.095Z,36.77
2018-11-06T03:21:33.229Z,32.57
2018-11-06T03:24:01.517Z,36.27
2018-11-06T03:26:29.630Z,33.40
2018-11-06T03:28:57.804Z,33.00
2018-11-06T03:31:25.969Z,31.00
2018-11-06T03:33:54.147Z,33.77
2018-11-06T03:36:22.268Z,33.93
2018-11-06T03:38:50.418Z,33.27
2018-11-06T03:41:18.578Z,34.07
2018-11-06T03:43:46.718Z,35.33
2018-11-06T03:46:14.948Z,33.30
2018-11-06T03:48:43.386Z,32.57
2018-11-06T03:51:11.506Z,35.30
2018-11-06T03:53:39.614Z,33.13
2018-11-06T03:56:08.468Z,33.80
2018-11-06T03:58:36.592Z,32.10
2018-11-06T04:01:05.005Z,32.00
2018-11-06T04:03:33.147Z,32.30
2018-11-06T04:06:01.272Z,33.10
2018-11-06T04:08:29.445Z,32.10
2018-11-06T04:10:57.591Z,34.67
2018-11-06T04:13:25.713Z,36.33
2018-11-06T04:15:53.855Z,30.87
2018-11-06T04:18:21.998Z,34.70
2018-11-06T04:20:50.137Z,30.60
2018-11-06T04:23:18.253Z,33.13
2018-11-06T04:25:46.390Z,29.73
2018-11-06T04:28:14.517Z,32.80
2018-11-06T04:30:42.633Z,31.23
2018-11-06T04:33:11.021Z,28.67
2018-11-06T04:35:39.113Z,33.83
2018-11-06T04:38:07.209Z,31.20
2018-11-06T04:40:35.388Z,28.70
2018-11-06T04:43:03.471Z,30.30
2018-11-06T04:45:31.578Z,28.43
2018-11-06T04:47:59.693Z,27.80
2018-11-06T04:50:27.839Z,29.40
2018-11-06T04:52:56.050Z,28.60
2018-11-06T04:55:24.153Z,28.37
2018-11-06T04:57:52.258Z,28.47
2018-11-06T05:00:20.385Z,30.53
2018-11-06T05:02:48.546Z,26.40
2018-11-06T05:05:16.917Z,28.97
2018-11-06T05:07:45.014Z,27.90
2018-11-06T05:10:14.367Z,30.50
2018-11-06T05:12:42.546Z,27.03
2018-11-06T05:15:12.361Z,30.23
2018-11-06T05:17:40.821Z,25.53
2018-11-06T05:20:11.260Z,26.97
2018-11-06T05:22:39.388Z,26.93
2018-11-06T05:25:08.157Z,27.47
2018-11-06T05:27:36.537Z,24.83
2018-11-06T05:30:05.271Z,27.13
2018-11-06T05:32:33.377Z,24.60
2018-11-06T05:35:01.578Z,25.20
2018-11-06T05:37:29.886Z,26.27
2018-11-06T05:40:09.501Z,29.80
2018-11-06T05:42:37.650Z,25.87
2018-11-06T05:45:05.978Z,27.50
2018-11-06T05:47:34.145Z,28.17
2018-11-06T05:50:02.634Z,23.13
2018-11-06T05:52:30.727Z,26.13
2018-11-06T05:54:58.865Z,24.63
2018-11-06T05:57:27.050Z,26.07
2018-11-06T05:59:55.170Z,24.50
2018-11-06T06:02:23.287Z,24.53
2018-11-06T06:04:51.413Z,26.47
2018-11-06T06:07:19.513Z,23.47
2018-11-06T06:09:47.608Z,25.13
2018-11-06T06:12:15.738Z,26.00
2018-11-06T06:14:43.874Z,25.87
2018-11-06T06:17:12.042Z,22.67
2018-11-06T06:19:40.102Z,25.00
2018-11-06T06:22:08.245Z,22.27
2018-11-06T06:24:36.649Z,23.53
2018-11-06T06:27:04.978Z,23.43
2018-11-06T06:29:33.081Z,23.33
2018-11-06T06:32:01.238Z,22.80
2018-11-06T06:34:29.389Z,22.07
2018-11-06T06:36:57.680Z,21.53
2018-11-06T06:39:25.781Z,21.13
2018-11-06T06:41:53.901Z,21.80
2018-11-06T06:44:22.038Z,23.93
2018-11-06T06:46:50.121Z,21.13
2018-11-06T06:49:18.272Z,20.77
2018-11-06T06:51:46.430Z,20.13
2018-11-06T06:54:14.644Z,19.70
2018-11-06T06:56:42.670Z,23.17
2018-11-06T06:59:10.872Z,22.37
2018-11-06T07:01:39.062Z,22.20
2018-11-06T07:04:07.200Z,20.80
2018-11-06T07:06:35.293Z,21.13
2018-11-06T07:09:04.553Z,20.03
2018-11-06T07:11:32.701Z,20.37
2018-11-06T07:14:00.824Z,20.37
2018-11-06T07:16:28.949Z,18.23
2018-11-06T07:18:57.070Z,21.17
2018-11-06T07:21:25.234Z,20.07
2018-11-06T07:23:53.365Z,22.80
2018-11-06T07:26:21.530Z,20.33
2018-11-06T07:28:49.723Z,22.40
2018-11-06T07:31:17.782Z,22.07
2018-11-06T07:33:45.887Z,21.97
2018-11-06T07:36:14.006Z,19.67
2018-11-06T07:38:42.142Z,19.53
2018-11-06T07:41:10.393Z,19.30
2018-11-06T07:43:38.422Z,21.40
2018-11-06T07:46:06.546Z,20.63
2018-11-06T07:48:34.654Z,21.73
2018-11-06T07:51:02.766Z,19.20
2018-11-06T07:53:30.925Z,21.30
2018-11-06T07:55:59.030Z,21.87
2018-11-06T07:58:27.174Z,18.53
2018-11-06T08:00:55.321Z,17.70
2018-11-06T08:03:23.422Z,20.67
2018-11-06T08:05:51.545Z,21.60
2018-11-06T08:08:19.653Z,19.23
2018-11-06T08:10:47.766Z,19.20
2018-11-06T08:13:15.936Z,18.83
2018-11-06T08:15:44.095Z,18.07
2018-11-06T08:18:12.267Z,17.50
2018-11-06T08:20:40.445Z,17.87
2018-11-06T08:23:08.515Z,17.70
2018-11-06T08:25:36.676Z,17.40
2018-11-06T08:28:05.222Z,18.27
2018-11-06T08:30:33.443Z,20.23
2018-11-06T08:33:01.447Z,19.10
2018-11-06T08:35:29.701Z,21.37
2018-11-06T08:37:57.845Z,18.17
2018-11-06T08:40:25.950Z,20.53
2018-11-06T08:42:54.077Z,19.97
2018-11-06T08:45:22.231Z,18.57
2018-11-06T08:47:50.347Z,17.97
2018-11-06T08:50:19.226Z,20.37
2018-11-06T08:52:47.367Z,18.83
2018-11-06T08:55:16.179Z,18.17
2018-11-06T08:57:44.822Z,19.40
2018-11-06T09:00:14.923Z,20.50
2018-11-06T09:02:44.273Z,18.80
2018-11-06T09:05:13.685Z,20.17
2018-11-06T09:07:41.783Z,21.67
2018-11-06T09:10:11.190Z,20.70
2018-11-06T09:12:39.743Z,19.63
2018-11-06T09:15:09.449Z,21.20
2018-11-06T09:17:38.161Z,19.87
2018-11-06T09:20:08.101Z,20.20
2018-11-06T09:22:36.442Z,18.97
2018-11-06T09:25:06.062Z,20.37
2018-11-06T09:27:34.165Z,21.63
2018-11-06T09:30:02.670Z,21.07
2018-11-06T09:32:30.776Z,19.40
2018-11-06T09:34:58.931Z,20.70
2018-11-06T09:37:27.028Z,20.83
2018-11-06T09:39:55.143Z,19.27
2018-11-06T09:42:23.269Z,22.93
2018-11-06T09:44:51.711Z,19.57
2018-11-06T09:47:19.819Z,20.67
2018-11-06T09:49:47.945Z,18.33
2018-11-06T09:52:16.430Z,18.43
2018-11-06T09:54:44.528Z,18.57
2018-11-06T09:57:12.635Z,19.90
2018-11-06T09:59:40.786Z,18.27
2018-11-06T10:02:09.198Z,20.67
2018-11-06T10:04:37.318Z,18.57
2018-11-06T10:07:06.229Z,18.80
2018-11-06T10:09:34.077Z,19.07
2018-11-06T10:12:02.200Z,21.87
2018-11-06T10:14:30.326Z,18.37
2018-11-06T10:16:58.454Z,18.83
2018-11-06T10:19:26.571Z,18.47
2018-11-06T10:21:54.683Z,18.03
2018-11-06T10:24:22.853Z,19.67
2018-11-06T10:26:51.065Z,18.53
2018-11-06T10:29:19.170Z,19.70
2018-11-06T10:31:47.309Z,18.63
2018-11-06T10:34:15.416Z,18.10
2018-11-06T10:36:43.521Z,17.37
2018-11-06T10:39:13.465Z,17.93
2018-11-06T10:41:41.575Z,19.63
2018-11-06T10:44:09.673Z,17.27
2018-11-06T10:46:38.170Z,17.43
2018-11-06T10:49:07.018Z,16.50
2018-11-06T10:51:35.179Z,19.30
2018-11-06T10:54:03.309Z,17.50
2018-11-06T10:56:31.546Z,18.37
2018-11-06T10:58:59.637Z,21.63
2018-11-06T11:01:33.312Z,20.43
2018-11-06T11:04:06.945Z,21.03
2018-11-06T11:06:35.118Z,17.70
2018-11-06T11:09:03.229Z,16.93
2018-11-06T11:11:31.385Z,16.17
2018-11-06T11:13:59.537Z,17.97
2018-11-06T11:16:27.666Z,14.90
2018-11-06T11:18:55.791Z,16.27
2018-11-06T11:21:24.756Z,14.10
2018-11-06T11:23:53.118Z,16.20
2018-11-06T11:26:21.229Z,18.27
2018-11-06T11:28:49.357Z,16.70
2018-11-06T11:31:17.595Z,14.00
2018-11-06T11:33:45.619Z,14.47
2018-11-06T11:36:13.730Z,15.87
2018-11-06T11:38:41.881Z,14.33
2018-11-06T11:41:10.114Z,15.83
2018-11-06T11:43:38.241Z,16.40
2018-11-06T11:46:06.385Z,15.63
2018-11-06T11:48:34.513Z,14.53
2018-11-06T11:51:02.644Z,15.30
2018-11-06T11:53:30.854Z,12.70
2018-11-06T11:55:58.970Z,15.03
2018-11-06T11:58:27.116Z,13.13
2018-11-06T12:00:55.213Z,13.63
2018-11-06T12:03:23.365Z,12.80
2018-11-06T12:05:51.493Z,13.40
2018-11-06T12:08:19.590Z,12.57
2018-11-06T12:10:47.741Z,13.10
2018-11-06T12:13:15.834Z,16.03
2018-11-06T12:15:43.949Z,16.03
2018-11-06T12:18:12.124Z,14.30
2018-11-06T12:20:40.561Z,13.40
2018-11-06T12:23:08.685Z,12.47
2018-11-06T12:25:37.028Z,13.20
2018-11-06T12:28:05.189Z,12.40
2018-11-06T12:30:33.352Z,12.57
2018-11-06T12:33:01.462Z,12.20
2018-11-06T12:35:29.592Z,13.20
2018-11-06T12:37:57.725Z,11.63
2018-11-06T12:40:25.868Z,12.57
2018-11-06T12:42:54.001Z,12.53
2018-11-06T12:45:22.097Z,11.73
2018-11-06T12:47:50.231Z,11.67
2018-11-06T12:50:18.642Z,12.33
2018-11-06T12:52:46.722Z,12.87
2018-11-06T12:55:15.740Z,14.87
2018-11-06T12:57:43.919Z,12.40
2018-11-06T13:00:15.005Z,11.87
2018-11-06T13:02:43.146Z,11.83
2018-11-06T13:05:11.281Z,12.00
2018-11-06T13:07:40.617Z,14.13
2018-11-06T13:10:09.522Z,10.93
2018-11-06T13:12:37.746Z,12.23
2018-11-06T13:15:06.370Z,12.40
2018-11-06T13:17:34.930Z,10.57
2018-11-06T13:20:03.052Z,9.87
2018-11-06T13:22:31.213Z,12.17
2018-11-06T13:24:59.323Z,11.17
2018-11-06T13:27:27.445Z,9.97
2018-11-06T13:29:55.589Z,13.90
2018-11-06T13:32:23.732Z,11.80
2018-11-06T13:34:51.837Z,9.73
2018-11-06T13:37:19.977Z,10.33
2018-11-06T13:39:48.132Z,10.77
2018-11-06T13:42:16.299Z,9.73
2018-11-06T13:44:44.726Z,11.87
2018-11-06T13:47:12.478Z,10.13
2018-11-06T13:49:40.589Z,13.03
2018-11-06T13:52:08.815Z,10.23
2018-11-06T13:54:36.829Z,11.67
2018-11-06T13:57:05.370Z,12.60
2018-11-06T13:59:33.479Z,11.37
2018-11-06T14:02:01.705Z,10.43
2018-11-06T14:04:30.202Z,11.77
2018-11-06T14:06:58.397Z,10.80
2018-11-06T14:09:26.515Z,10.13
2018-11-06T14:11:54.637Z,10.67
2018-11-06T14:14:22.769Z,14.07
2018-11-06T14:16:50.925Z,11.13
2018-11-06T14:19:19.046Z,10.37
2018-11-06T14:21:47.182Z,10.77
2018-11-06T14:24:15.350Z,11.53
2018-11-06T14:26:43.473Z,9.87
2018-11-06T14:29:11.643Z,10.60
2018-11-06T14:31:39.726Z,10.03
2018-11-06T14:34:07.865Z,10.17
2018-11-06T14:36:35.978Z,10.33
2018-11-06T14:39:05.464Z,11.27
2018-11-06T14:41:33.587Z,11.10
2018-11-06T14:44:01.726Z,12.13
2018-11-06T14:46:30.049Z,11.43
2018-11-06T14:48:58.291Z,11.23
2018-11-06T14:51:26.395Z,14.07
2018-11-06T14:53:54.496Z,12.20
2018-11-06T14:56:22.593Z,12.87
2018-11-06T14:58:50.830Z,16.43
2018-11-06T15:01:18.925Z,12.87
2018-11-06T15:03:47.017Z,18.87
2018-11-06T15:06:15.142Z,13.40
2018-11-06T15:08:43.301Z,13.43
2018-11-06T15:11:11.450Z,15.10
2018-11-06T15:13:39.659Z,13.30
2018-11-06T15:16:09.122Z,13.30
2018-11-06T15:18:37.225Z,13.27
2018-11-06T15:21:05.699Z,17.33
2018-11-06T15:23:34.072Z,13.83
2018-11-06T15:26:02.254Z,14.47
2018-11-06T15:28:30.382Z,13.27
2018-11-06T15:30:58.537Z,14.20
2018-11-06T15:33:26.824Z,13.03
2018-11-06T15:35:54.913Z,13.13
2018-11-06T15:38:23.036Z,15.03
2018-11-06T15:40:53.243Z,13.80
2018-11-06T15:43:21.303Z,13.90
2018-11-06T15:45:49.456Z,14.30
2018-11-06T15:48:17.587Z,14.43
2018-11-06T15:50:45.730Z,13.40
2018-11-06T15:53:13.909Z,15.20
2018-11-06T15:55:42.050Z,15.07
2018-11-06T15:58:10.149Z,16.97
2018-11-06T16:00:38.352Z,14.43
2018-11-06T16:03:06.458Z,12.50
2018-11-06T16:05:34.541Z,15.67
2018-11-06T16:08:02.702Z,14.13
2018-11-06T16:10:30.778Z,15.73
2018-11-06T16:12:58.897Z,12.30
2018-11-06T16:15:27.096Z,12.80
2018-11-06T16:17:55.269Z,13.07
2018-11-06T16:20:23.507Z,12.13
2018-11-06T16:22:51.693Z,11.63
2018-11-06T16:25:20.394Z,12.37
2018-11-06T16:27:48.861Z,12.83
2018-11-06T16:30:18.224Z,14.53
2018-11-06T16:32:46.451Z,15.13
2018-11-06T16:35:16.826Z,12.60
2018-11-06T16:37:45.389Z,12.77
2018-11-06T16:40:14.110Z,16.00
2018-11-06T16:42:43.179Z,13.10
2018-11-06T16:45:13.733Z,12.90
2018-11-06T16:47:42.533Z,14.90
2018-11-06T16:50:11.969Z,13.23
2018-11-06T16:52:40.273Z,15.63
2018-11-06T16:55:08.844Z,17.77
2018-11-06T16:57:37.437Z,14.57
2018-11-06T17:00:07.417Z,13.87
2018-11-06T17:02:35.558Z,15.40
2018-11-06T17:05:03.866Z,12.63
2018-11-06T17:07:31.962Z,18.07
2018-11-06T17:10:00.087Z,14.57
2018-11-06T17:12:28.281Z,13.70
2018-11-06T17:14:56.382Z,15.53
2018-11-06T17:17:24.571Z,13.73
2018-11-06T17:19:52.634Z,15.53
2018-11-06T17:22:20.779Z,15.27
2018-11-06T17:24:48.963Z,13.10
2018-11-06T17:27:17.013Z,12.70
2018-11-06T17:29:45.156Z,16.53
2018-11-06T17:32:13.278Z,12.93
2018-11-06T17:34:41.408Z,15.30
2018-11-06T17:37:09.614Z,13.07
2018-11-06T17:39:37.910Z,13.90
2018-11-06T17:42:05.935Z,13.70
2018-11-06T17:44:34.057Z,13.13
2018-11-06T17:47:02.203Z,14.30
2018-11-06T17:49:30.450Z,14.00
2018-11-06T17:51:58.553Z,14.77
2018-11-06T17:54:26.637Z,16.03
2018-11-06T17:56:54.810Z,14.20
2018-11-06T17:59:22.941Z,17.07
2018-11-06T18:01:52.156Z,14.43
2018-11-06T18:04:20.386Z,13.73
2018-11-06T18:06:48.435Z,14.97
2018-11-06T18:09:16.529Z,16.50
2018-11-06T18:11:44.702Z,14.67
2018-11-06T18:14:12.841Z,16.97
2018-11-06T18:16:41.005Z,16.77
2018-11-06T18:19:09.101Z,15.80
2018-11-06T18:21:37.550Z,17.60
2018-11-06T18:24:06.058Z,18.30
2018-11-06T18:26:34.219Z,17.43
2018-11-06T18:29:02.378Z,16.10
2018-11-06T18:31:30.548Z,16.77
2018-11-06T18:33:58.650Z,18.27
2018-11-06T18:36:26.766Z,17.70
2018-11-06T18:38:54.942Z,18.73
2018-11-06T18:41:23.093Z,17.70
2018-11-06T18:43:51.209Z,17.10
2018-11-06T18:46:19.417Z,19.90
2018-11-06T18:48:47.547Z,17.27
2018-11-06T18:51:15.776Z,16.40
2018-11-06T18:53:43.929Z,16.60
2018-11-06T18:56:12.123Z,19.77
2018-11-06T18:58:40.567Z,15.80
2018-11-06T19:01:08.689Z,19.03
2018-11-06T19:03:36.799Z,15.53
2018-11-06T19:06:05.274Z,18.57
2018-11-06T19:08:33.401Z,16.93
2018-11-06T19:11:01.542Z,15.90
2018-11-06T19:13:29.658Z,15.60
2018-11-06T19:15:57.793Z,17.13
2018-11-06T19:18:25.915Z,15.50
2018-11-06T19:20:54.110Z,16.43
2018-11-06T19:23:22.316Z,20.03
2018-11-06T19:25:50.776Z,14.97
2018-11-06T19:28:18.951Z,15.73
2018-11-06T19:30:47.125Z,16.77
2018-11-06T19:33:15.259Z,17.50
2018-11-06T19:35:43.453Z,17.97
2018-11-06T19:38:12.349Z,17.63
2018-11-06T19:40:40.550Z,18.27
2018-11-06T19:43:08.740Z,17.87
2018-11-06T19:45:36.881Z,15.70
2018-11-06T19:48:05.560Z,14.77
2018-11-06T19:50:33.721Z,15.77
2018-11-06T19:53:01.925Z,14.40
2018-11-06T19:55:30.105Z,15.03
2018-11-06T19:57:58.227Z,14.90
2018-11-06T20:00:26.415Z,15.47
2018-11-06T20:02:54.854Z,16.83
2018-11-06T20:05:23.193Z,15.07
2018-11-06T20:07:51.911Z,14.63
2018-11-06T20:10:21.342Z,14.80
2018-11-06T20:12:50.569Z,14.73
2018-11-06T20:15:18.717Z,17.27
2018-11-06T20:17:47.119Z,14.93
2018-11-06T20:20:18.179Z,16.23
2018-11-06T20:22:46.490Z,15.33
2018-11-06T20:25:14.618Z,16.13
2018-11-06T20:27:43.426Z,17.97
2018-11-06T20:30:14.037Z,20.10
2018-11-06T20:32:42.341Z,15.63
2018-11-06T20:35:11.497Z,18.33
2018-11-06T20:37:39.721Z,15.97
2018-11-06T20:40:10.072Z,16.03
2018-11-06T20:42:38.563Z,17.03
2018-11-06T20:45:08.569Z,17.07
2018-11-06T20:47:36.762Z,21.77
2018-11-06T20:50:07.394Z,18.00
2018-11-06T20:52:35.486Z,17.63
2018-11-06T20:55:03.779Z,18.17
2018-11-06T20:57:31.900Z,16.57
2018-11-06T21:00:00.210Z,20.07
2018-11-06T21:02:28.178Z,16.07
2018-11-06T21:04:56.341Z,16.20
2018-11-06T21:07:25.153Z,17.87
2018-11-06T21:09:53.278Z,16.93
2018-11-06T21:12:21.426Z,18.03
2018-11-06T21:14:49.546Z,16.77
2018-11-06T21:17:17.697Z,17.07
2018-11-06T21:19:45.843Z,18.37
2018-11-06T21:22:13.936Z,17.97
2018-11-06T21:24:42.085Z,16.60
2018-11-06T21:27:10.281Z,17.27
2018-11-06T21:29:38.361Z,15.80
2018-11-06T21:32:06.519Z,15.80
2018-11-06T21:34:34.954Z,15.73
2018-11-06T21:37:03.067Z,16.67
2018-11-06T21:39:31.180Z,15.40
2018-11-06T21:41:59.461Z,18.37
2018-11-06T21:44:27.590Z,16.03
2018-11-06T21:46:55.721Z,17.47
2018-11-06T21:49:24.126Z,16.57
2018-11-06T21:51:52.246Z,17.13
2018-11-06T21:54:20.384Z,19.27
2018-11-06T21:56:48.613Z,16.13
2018-11-06T21:59:16.758Z,14.90
2018-11-06T22:01:44.982Z,16.50
2018-11-06T22:04:13.150Z,16.80
2018-11-06T22:06:41.322Z,15.77
2018-11-06T22:09:09.834Z,14.83
2018-11-06T22:11:38.043Z,15.03
2018-11-06T22:14:06.663Z,17.53
2018-11-06T22:16:34.763Z,14.87
2018-11-06T22:19:02.898Z,15.63
2018-11-06T22:21:31.387Z,16.30
2018-11-06T22:23:59.754Z,15.43
2018-11-06T22:26:27.886Z,15.37
2018-11-06T22:28:56.259Z,15.20
2018-11-06T22:31:24.421Z,14.47
2018-11-06T22:33:52.504Z,14.53
2018-11-06T22:36:20.669Z,14.70
2018-11-06T22:38:48.938Z,14.00
2018-11-06T22:41:17.041Z,13.90
2018-11-06T22:43:45.183Z,14.57
2018-11-06T22:46:13.261Z,13.63
2018-11-06T22:48:41.396Z,13.83
2018-11-06T22:51:09.520Z,13.60
2018-11-06T22:53:37.618Z,14.87
2018-11-06T22:56:05.718Z,14.43
2018-11-06T22:58:33.882Z,14.37
2018-11-06T23:01:07.494Z,14.37
2018-11-06T23:03:35.649Z,13.67
2018-11-06T23:06:04.160Z,15.50
2018-11-06T23:08:32.239Z,15.47
2018-11-06T23:11:00.347Z,13.93
2018-11-06T23:13:28.473Z,14.83
2018-11-06T23:15:56.601Z,15.80
2018-11-06T23:18:24.725Z,14.60
2018-11-06T23:20:52.891Z,17.43
2018-11-06T23:23:20.991Z,13.97
2018-11-06T23:25:49.113Z,16.10
2018-11-06T23:28:17.289Z,14.77
2018-11-06T23:30:45.422Z,14.03
2018-11-06T23:33:13.545Z,16.00
2018-11-06T23:35:41.682Z,13.47
2018-11-06T23:38:09.766Z,13.47
2018-11-06T23:40:37.891Z,13.27
2018-11-06T23:43:06.034Z,12.90
2018-11-06T23:45:34.137Z,12.40
2018-11-06T23:48:02.666Z,11.90
2018-11-06T23:50:30.773Z,13.67
2018-11-06T23:52:58.890Z,13.60
2018-11-06T23:55:27.013Z,11.77
2018-11-06T23:57:55.162Z,14.73
